sensor_id;sensor_type;location;lat;lon;timestamp;pressure;altitude;pressure_sealevel;temperature
34807;BMP280;18310;55.586;12.286;2023-10-13T00:01:03;101321.91;;;12.42
34807;BMP280;18310;55.586;12.286;2023-10-13T00:04:09;101323.44;;;12.55
34807;BMP280;18310;55.586;12.286;2023-10-13T00:07:12;101317.13;;;12.67
34807;BMP280;18310;55.586;12.286;2023-10-13T00:10:15;101324.47;;;12.78
34807;BMP280;18310;55.586;12.286;2023-10-13T00:13:22;101320.94;;;12.93
34807;BMP280;18310;55.586;12.286;2023-10-13T00:16:26;101308.38;;;13.04
34807;BMP280;18310;55.586;12.286;2023-10-13T00:19:31;101313.75;;;13.17
34807;BMP280;18310;55.586;12.286;2023-10-13T00:22:40;101317.19;;;13.29
34807;BMP280;18310;55.586;12.286;2023-10-13T00:25:44;101321.66;;;13.37
34807;BMP280;18310;55.586;12.286;2023-10-13T00:28:53;101329.78;;;13.49
34807;BMP280;18310;55.586;12.286;2023-10-13T00:32:10;101322.97;;;13.59
34807;BMP280;18310;55.586;12.286;2023-10-13T00:35:14;101320.59;;;13.58
34807;BMP280;18310;55.586;12.286;2023-10-13T00:38:26;101308.38;;;13.71
34807;BMP280;18310;55.586;12.286;2023-10-13T00:41:30;101313.22;;;13.77
34807;BMP280;18310;55.586;12.286;2023-10-13T00:44:55;101311.09;;;13.86
34807;BMP280;18310;55.586;12.286;2023-10-13T00:47:58;101307.72;;;13.93
34807;BMP280;18310;55.586;12.286;2023-10-13T00:51:04;101290.13;;;13.94
34807;BMP280;18310;55.586;12.286;2023-10-13T00:54:09;101298.22;;;14.06
34807;BMP280;18310;55.586;12.286;2023-10-13T00:57:14;101291.53;;;14.04
34807;BMP280;18310;55.586;12.286;2023-10-13T01:00:30;101310.16;;;14.17
34807;BMP280;18310;55.586;12.286;2023-10-13T01:03:33;101311.47;;;14.23
34807;BMP280;18310;55.586;12.286;2023-10-13T01:06:36;101296.34;;;14.29
34807;BMP280;18310;55.586;12.286;2023-10-13T01:09:40;101298.00;;;14.34
34807;BMP280;18310;55.586;12.286;2023-10-13T01:12:45;101290.28;;;14.39
34807;BMP280;18310;55.586;12.286;2023-10-13T01:15:49;101285.28;;;14.45
34807;BMP280;18310;55.586;12.286;2023-10-13T01:18:52;101274.03;;;14.50
34807;BMP280;18310;55.586;12.286;2023-10-13T01:22:01;101272.09;;;14.51
34807;BMP280;18310;55.586;12.286;2023-10-13T01:25:08;101281.53;;;14.53
34807;BMP280;18310;55.586;12.286;2023-10-13T01:28:15;101279.28;;;14.59
34807;BMP280;18310;55.586;12.286;2023-10-13T01:31:18;101256.88;;;14.53
34807;BMP280;18310;55.586;12.286;2023-10-13T01:34:29;101267.28;;;14.67
34807;BMP280;18310;55.586;12.286;2023-10-13T01:37:35;101268.56;;;14.73
34807;BMP280;18310;55.586;12.286;2023-10-13T01:40:39;101262.00;;;14.77
34807;BMP280;18310;55.586;12.286;2023-10-13T01:43:49;101259.75;;;14.83
34807;BMP280;18310;55.586;12.286;2023-10-13T01:46:52;101253.16;;;14.87
34807;BMP280;18310;55.586;12.286;2023-10-13T01:49:54;101249.69;;;14.90
34807;BMP280;18310;55.586;12.286;2023-10-13T01:53:00;101257.19;;;14.93
34807;BMP280;18310;55.586;12.286;2023-10-13T01:56:14;101250.97;;;14.97
34807;BMP280;18310;55.586;12.286;2023-10-13T01:59:18;101238.06;;;14.97
34807;BMP280;18310;55.586;12.286;2023-10-13T02:02:21;101236.47;;;14.96
34807;BMP280;18310;55.586;12.286;2023-10-13T02:05:33;101231.72;;;14.93
34807;BMP280;18310;55.586;12.286;2023-10-13T02:08:38;101226.91;;;14.86
34807;BMP280;18310;55.586;12.286;2023-10-13T02:11:46;101215.03;;;14.79
34807;BMP280;18310;55.586;12.286;2023-10-13T02:14:51;101210.97;;;14.69
34807;BMP280;18310;55.586;12.286;2023-10-13T02:17:53;101207.69;;;14.60
34807;BMP280;18310;55.586;12.286;2023-10-13T02:20:57;101205.63;;;14.54
34807;BMP280;18310;55.586;12.286;2023-10-13T02:24:07;101197.19;;;14.43
34807;BMP280;18310;55.586;12.286;2023-10-13T02:27:16;101193.94;;;14.34
34807;BMP280;18310;55.586;12.286;2023-10-13T02:30:19;101174.88;;;14.18
34807;BMP280;18310;55.586;12.286;2023-10-13T02:33:25;101191.22;;;14.15
34807;BMP280;18310;55.586;12.286;2023-10-13T02:36:32;101183.66;;;14.08
34807;BMP280;18310;55.586;12.286;2023-10-13T02:39:38;101176.91;;;14.02
34807;BMP280;18310;55.586;12.286;2023-10-13T02:42:44;101186.56;;;13.96
34807;BMP280;18310;55.586;12.286;2023-10-13T02:46:07;101177.06;;;13.90
34807;BMP280;18310;55.586;12.286;2023-10-13T02:49:11;101166.84;;;13.87
34807;BMP280;18310;55.586;12.286;2023-10-13T02:52:15;101158.53;;;13.83
34807;BMP280;18310;55.586;12.286;2023-10-13T02:55:19;101156.94;;;13.82
34807;BMP280;18310;55.586;12.286;2023-10-13T02:58:27;101158.94;;;13.82
34807;BMP280;18310;55.586;12.286;2023-10-13T03:01:41;101157.75;;;13.83
34807;BMP280;18310;55.586;12.286;2023-10-13T03:04:46;101136.97;;;13.78
34807;BMP280;18310;55.586;12.286;2023-10-13T03:07:50;101144.47;;;13.81
34807;BMP280;18310;55.586;12.286;2023-10-13T03:10:52;101143.38;;;13.86
34807;BMP280;18310;55.586;12.286;2023-10-13T03:13:56;101133.22;;;13.86
34807;BMP280;18310;55.586;12.286;2023-10-13T03:17:01;101111.34;;;13.86
34807;BMP280;18310;55.586;12.286;2023-10-13T03:20:08;101123.53;;;14.12
34807;BMP280;18310;55.586;12.286;2023-10-13T03:23:13;101110.81;;;14.23
34807;BMP280;18310;55.586;12.286;2023-10-13T03:26:17;101116.91;;;14.35
34807;BMP280;18310;55.586;12.286;2023-10-13T03:29:21;101111.94;;;14.44
34807;BMP280;18310;55.586;12.286;2023-10-13T03:32:27;101098.03;;;14.57
34807;BMP280;18310;55.586;12.286;2023-10-13T03:35:33;101103.75;;;14.71
34807;BMP280;18310;55.586;12.286;2023-10-13T03:38:49;101098.53;;;14.88
34807;BMP280;18310;55.586;12.286;2023-10-13T03:41:57;101090.97;;;15.08
34807;BMP280;18310;55.586;12.286;2023-10-13T03:45:01;101078.69;;;15.28
34807;BMP280;18310;55.586;12.286;2023-10-13T03:48:09;101071.00;;;15.44
34807;BMP280;18310;55.586;12.286;2023-10-13T03:51:13;101059.03;;;15.60
34807;BMP280;18310;55.586;12.286;2023-10-13T03:54:17;101062.69;;;15.74
34807;BMP280;18310;55.586;12.286;2023-10-13T03:57:21;101060.09;;;15.92
34807;BMP280;18310;55.586;12.286;2023-10-13T04:00:27;101053.19;;;16.09
34807;BMP280;18310;55.586;12.286;2023-10-13T04:03:32;101048.59;;;16.23
34807;BMP280;18310;55.586;12.286;2023-10-13T04:06:37;101040.44;;;16.37
34807;BMP280;18310;55.586;12.286;2023-10-13T04:09:53;101038.59;;;16.52
34807;BMP280;18310;55.586;12.286;2023-10-13T04:13:14;101032.75;;;16.64
34807;BMP280;18310;55.586;12.286;2023-10-13T04:16:35;101024.16;;;16.73
34807;BMP280;18310;55.586;12.286;2023-10-13T04:19:41;101010.06;;;16.78
34807;BMP280;18310;55.586;12.286;2023-10-13T04:23:09;101018.34;;;16.96
34807;BMP280;18310;55.586;12.286;2023-10-13T04:26:21;101018.38;;;17.06
34807;BMP280;18310;55.586;12.286;2023-10-13T04:29:23;101009.75;;;17.11
34807;BMP280;18310;55.586;12.286;2023-10-13T04:32:47;101015.28;;;17.18
34807;BMP280;18310;55.586;12.286;2023-10-13T04:36:11;101010.97;;;17.24
34807;BMP280;18310;55.586;12.286;2023-10-13T04:39:16;101009.78;;;17.29
34807;BMP280;18310;55.586;12.286;2023-10-13T04:42:31;100996.06;;;17.36
34807;BMP280;18310;55.586;12.286;2023-10-13T04:45:51;100980.31;;;17.40
34807;BMP280;18310;55.586;12.286;2023-10-13T04:48:57;100970.50;;;17.46
34807;BMP280;18310;55.586;12.286;2023-10-13T04:52:05;100968.13;;;17.52
34807;BMP280;18310;55.586;12.286;2023-10-13T04:55:29;100955.16;;;17.52
34807;BMP280;18310;55.586;12.286;2023-10-13T04:58:50;100928.81;;;17.55
34807;BMP280;18310;55.586;12.286;2023-10-13T05:02:07;100932.75;;;17.57
34807;BMP280;18310;55.586;12.286;2023-10-13T05:05:45;100917.81;;;17.58
34807;BMP280;18310;55.586;12.286;2023-10-13T05:08:56;100918.97;;;17.64
34807;BMP280;18310;55.586;12.286;2023-10-13T05:12:17;100905.63;;;17.63
34807;BMP280;18310;55.586;12.286;2023-10-13T05:15:43;100896.16;;;17.64
34807;BMP280;18310;55.586;12.286;2023-10-13T05:19:04;100886.72;;;17.65
34807;BMP280;18310;55.586;12.286;2023-10-13T05:22:25;100865.50;;;17.65
34807;BMP280;18310;55.586;12.286;2023-10-13T05:25:47;100843.84;;;17.64
34807;BMP280;18310;55.586;12.286;2023-10-13T05:29:08;100861.53;;;17.77
34807;BMP280;18310;55.586;12.286;2023-10-13T05:32:31;100865.47;;;17.83
34807;BMP280;18310;55.586;12.286;2023-10-13T05:36:10;100869.78;;;17.87
34807;BMP280;18310;55.586;12.286;2023-10-13T05:39:31;100862.28;;;17.91
34807;BMP280;18310;55.586;12.286;2023-10-13T05:42:53;100853.25;;;17.91
34807;BMP280;18310;55.586;12.286;2023-10-13T05:46:14;100844.91;;;17.98
34807;BMP280;18310;55.586;12.286;2023-10-13T05:49:35;100839.81;;;18.00
34807;BMP280;18310;55.586;12.286;2023-10-13T05:52:55;100832.34;;;18.04
34807;BMP280;18310;55.586;12.286;2023-10-13T05:56:16;100830.72;;;18.10
34807;BMP280;18310;55.586;12.286;2023-10-13T05:59:38;100815.34;;;18.13
34807;BMP280;18310;55.586;12.286;2023-10-13T06:02:59;100813.38;;;18.17
34807;BMP280;18310;55.586;12.286;2023-10-13T06:06:21;100796.84;;;18.17
34807;BMP280;18310;55.586;12.286;2023-10-13T06:09:41;100801.50;;;18.27
34807;BMP280;18310;55.586;12.286;2023-10-13T06:13:02;100794.03;;;18.27
34807;BMP280;18310;55.586;12.286;2023-10-13T06:16:25;100789.25;;;18.31
34807;BMP280;18310;55.586;12.286;2023-10-13T06:19:46;100782.56;;;18.32
34807;BMP280;18310;55.586;12.286;2023-10-13T06:23:07;100772.72;;;18.35
34807;BMP280;18310;55.586;12.286;2023-10-13T06:26:28;100768.00;;;18.39
34807;BMP280;18310;55.586;12.286;2023-10-13T06:29:49;100750.28;;;18.36
34807;BMP280;18310;55.586;12.286;2023-10-13T06:32:57;100760.09;;;18.41
34807;BMP280;18310;55.586;12.286;2023-10-13T06:36:01;100757.34;;;18.41
34807;BMP280;18310;55.586;12.286;2023-10-13T06:39:05;100766.38;;;18.41
34807;BMP280;18310;55.586;12.286;2023-10-13T06:42:23;100758.94;;;18.38
34807;BMP280;18310;55.586;12.286;2023-10-13T06:45:29;100756.13;;;18.42
34807;BMP280;18310;55.586;12.286;2023-10-13T06:48:39;100745.88;;;18.42
34807;BMP280;18310;55.586;12.286;2023-10-13T06:51:43;100741.59;;;18.38
34807;BMP280;18310;55.586;12.286;2023-10-13T06:54:49;100736.88;;;18.38
34807;BMP280;18310;55.586;12.286;2023-10-13T06:57:53;100732.94;;;18.39
34807;BMP280;18310;55.586;12.286;2023-10-13T07:00:56;100727.81;;;18.41
34807;BMP280;18310;55.586;12.286;2023-10-13T07:04:02;100725.81;;;18.42
34807;BMP280;18310;55.586;12.286;2023-10-13T07:07:06;100717.16;;;18.40
34807;BMP280;18310;55.586;12.286;2023-10-13T07:10:12;100716.34;;;18.43
34807;BMP280;18310;55.586;12.286;2023-10-13T07:13:17;100704.50;;;18.46
34807;BMP280;18310;55.586;12.286;2023-10-13T07:16:21;100692.72;;;18.45
34807;BMP280;18310;55.586;12.286;2023-10-13T07:19:29;100683.66;;;18.45
34807;BMP280;18310;55.586;12.286;2023-10-13T07:22:33;100668.31;;;18.44
34807;BMP280;18310;55.586;12.286;2023-10-13T07:25:43;100660.81;;;18.44
34807;BMP280;18310;55.586;12.286;2023-10-13T07:28:46;100664.78;;;18.43
34807;BMP280;18310;55.586;12.286;2023-10-13T07:31:53;100645.50;;;18.43
34807;BMP280;18310;55.586;12.286;2023-10-13T07:34:58;100639.19;;;18.43
34807;BMP280;18310;55.586;12.286;2023-10-13T07:38:12;100651.38;;;18.45
34807;BMP280;18310;55.586;12.286;2023-10-13T07:41:15;100620.66;;;18.47
34807;BMP280;18310;55.586;12.286;2023-10-13T07:44:19;100610.78;;;18.50
34807;BMP280;18310;55.586;12.286;2023-10-13T07:47:27;100589.50;;;18.50
34807;BMP280;18310;55.586;12.286;2023-10-13T07:50:36;100600.13;;;18.52
34807;BMP280;18310;55.586;12.286;2023-10-13T07:53:46;100587.47;;;18.54
34807;BMP280;18310;55.586;12.286;2023-10-13T07:56:51;100577.63;;;18.57
34807;BMP280;18310;55.586;12.286;2023-10-13T07:59:56;100570.94;;;18.58
34807;BMP280;18310;55.586;12.286;2023-10-13T08:03:11;100554.78;;;18.56
34807;BMP280;18310;55.586;12.286;2023-10-13T08:06:35;100557.91;;;18.62
34807;BMP280;18310;55.586;12.286;2023-10-13T08:09:40;100542.50;;;18.64
34807;BMP280;18310;55.586;12.286;2023-10-13T08:12:53;100531.84;;;18.66
34807;BMP280;18310;55.586;12.286;2023-10-13T08:16:01;100528.66;;;18.68
34807;BMP280;18310;55.586;12.286;2023-10-13T08:19:08;100529.00;;;18.73
34807;BMP280;18310;55.586;12.286;2023-10-13T08:22:15;100513.63;;;18.76
34807;BMP280;18310;55.586;12.286;2023-10-13T08:25:35;100500.94;;;18.78
34807;BMP280;18310;55.586;12.286;2023-10-13T08:28:52;100502.88;;;18.81
34807;BMP280;18310;55.586;12.286;2023-10-13T08:32:00;100496.13;;;18.86
34807;BMP280;18310;55.586;12.286;2023-10-13T08:35:22;100488.22;;;18.88
34807;BMP280;18310;55.586;12.286;2023-10-13T08:38:39;100486.59;;;18.94
34807;BMP280;18310;55.586;12.286;2023-10-13T08:41:53;100477.84;;;18.99
34807;BMP280;18310;55.586;12.286;2023-10-13T08:45:15;100464.34;;;19.05
34807;BMP280;18310;55.586;12.286;2023-10-13T08:48:50;100458.81;;;19.08
34807;BMP280;18310;55.586;12.286;2023-10-13T08:51:59;100447.69;;;19.12
34807;BMP280;18310;55.586;12.286;2023-10-13T08:55:31;100431.06;;;19.15
34807;BMP280;18310;55.586;12.286;2023-10-13T08:58:50;100427.84;;;19.20
34807;BMP280;18310;55.586;12.286;2023-10-13T09:02:14;100415.16;;;19.23
34807;BMP280;18310;55.586;12.286;2023-10-13T09:05:23;100406.84;;;19.26
34807;BMP280;18310;55.586;12.286;2023-10-13T09:08:49;100393.78;;;19.30
34807;BMP280;18310;55.586;12.286;2023-10-13T09:12:12;100376.81;;;19.32
34807;BMP280;18310;55.586;12.286;2023-10-13T09:15:15;100377.81;;;19.41
34807;BMP280;18310;55.586;12.286;2023-10-13T09:18:26;100374.56;;;19.46
34807;BMP280;18310;55.586;12.286;2023-10-13T09:21:45;100365.38;;;19.53
34807;BMP280;18310;55.586;12.286;2023-10-13T09:24:58;100360.06;;;19.62
34807;BMP280;18310;55.586;12.286;2023-10-13T09:28:09;100353.72;;;19.65
34807;BMP280;18310;55.586;12.286;2023-10-13T09:31:22;100339.34;;;19.74
34807;BMP280;18310;55.586;12.286;2023-10-13T09:34:29;100337.53;;;19.83
34807;BMP280;18310;55.586;12.286;2023-10-13T09:37:32;100333.00;;;19.93
34807;BMP280;18310;55.586;12.286;2023-10-13T09:40:39;100310.00;;;19.99
34807;BMP280;18310;55.586;12.286;2023-10-13T09:43:49;100297.16;;;20.09
34807;BMP280;18310;55.586;12.286;2023-10-13T09:47:25;100291.13;;;20.14
34807;BMP280;18310;55.586;12.286;2023-10-13T09:50:37;100280.25;;;20.23
34807;BMP280;18310;55.586;12.286;2023-10-13T09:53:48;100281.31;;;20.29
34807;BMP280;18310;55.586;12.286;2023-10-13T09:57:17;100267.75;;;20.35
34807;BMP280;18310;55.586;12.286;2023-10-13T10:00:23;100260.13;;;20.39
34807;BMP280;18310;55.586;12.286;2023-10-13T10:03:50;100236.81;;;20.40
34807;BMP280;18310;55.586;12.286;2023-10-13T10:06:58;100237.16;;;20.42
34807;BMP280;18310;55.586;12.286;2023-10-13T10:10:01;100230.34;;;20.46
34807;BMP280;18310;55.586;12.286;2023-10-13T10:13:12;100232.22;;;20.49
34807;BMP280;18310;55.586;12.286;2023-10-13T10:16:22;100218.31;;;20.53
34807;BMP280;18310;55.586;12.286;2023-10-13T10:19:32;100209.50;;;20.58
34807;BMP280;18310;55.586;12.286;2023-10-13T10:22:38;100201.09;;;20.61
34807;BMP280;18310;55.586;12.286;2023-10-13T10:25:48;100187.97;;;20.66
34807;BMP280;18310;55.586;12.286;2023-10-13T10:28:54;100172.84;;;20.70
34807;BMP280;18310;55.586;12.286;2023-10-13T10:31:57;100164.44;;;20.74
34807;BMP280;18310;55.586;12.286;2023-10-13T10:35:05;100155.63;;;20.79
34807;BMP280;18310;55.586;12.286;2023-10-13T10:38:12;100155.53;;;20.82
34807;BMP280;18310;55.586;12.286;2023-10-13T10:41:26;100134.94;;;20.83
34807;BMP280;18310;55.586;12.286;2023-10-13T10:44:41;100136.81;;;20.86
34807;BMP280;18310;55.586;12.286;2023-10-13T10:47:47;100126.53;;;20.87
34807;BMP280;18310;55.586;12.286;2023-10-13T10:50:53;100110.28;;;20.89
34807;BMP280;18310;55.586;12.286;2023-10-13T10:53:57;100102.75;;;20.89
34807;BMP280;18310;55.586;12.286;2023-10-13T10:57:14;100096.78;;;20.91
34807;BMP280;18310;55.586;12.286;2023-10-13T11:00:20;100085.28;;;20.92
34807;BMP280;18310;55.586;12.286;2023-10-13T11:03:27;100072.66;;;20.91
34807;BMP280;18310;55.586;12.286;2023-10-13T11:06:32;100060.38;;;20.92
34807;BMP280;18310;55.586;12.286;2023-10-13T11:09:40;100050.75;;;20.97
34807;BMP280;18310;55.586;12.286;2023-10-13T11:12:55;100030.94;;;20.98
34807;BMP280;18310;55.586;12.286;2023-10-13T11:16:19;100025.66;;;21.04
34807;BMP280;18310;55.586;12.286;2023-10-13T11:19:34;100014.00;;;21.09
34807;BMP280;18310;55.586;12.286;2023-10-13T11:22:39;100006.06;;;21.11
34807;BMP280;18310;55.586;12.286;2023-10-13T11:25:56;99993.00;;;21.11
34807;BMP280;18310;55.586;12.286;2023-10-13T11:29:01;99987.34;;;21.15
34807;BMP280;18310;55.586;12.286;2023-10-13T11:32:08;99970.75;;;21.15
34807;BMP280;18310;55.586;12.286;2023-10-13T11:35:21;99967.41;;;21.20
34807;BMP280;18310;55.586;12.286;2023-10-13T11:38:28;99944.81;;;21.22
34807;BMP280;18310;55.586;12.286;2023-10-13T11:41:37;99934.88;;;21.24
34807;BMP280;18310;55.586;12.286;2023-10-13T11:44:48;99923.34;;;21.26
34807;BMP280;18310;55.586;12.286;2023-10-13T11:48:04;99919.78;;;21.25
34807;BMP280;18310;55.586;12.286;2023-10-13T11:51:15;99904.97;;;21.19
34807;BMP280;18310;55.586;12.286;2023-10-13T11:54:27;99897.31;;;21.23
34807;BMP280;18310;55.586;12.286;2023-10-13T11:57:30;99900.22;;;21.20
34807;BMP280;18310;55.586;12.286;2023-10-13T12:00:33;99885.91;;;21.21
34807;BMP280;18310;55.586;12.286;2023-10-13T12:03:50;99860.38;;;21.17
34807;BMP280;18310;55.586;12.286;2023-10-13T12:07:11;99851.31;;;21.17
34807;BMP280;18310;55.586;12.286;2023-10-13T12:10:20;99832.69;;;21.17
34807;BMP280;18310;55.586;12.286;2023-10-13T12:13:36;99824.72;;;21.19
34807;BMP280;18310;55.586;12.286;2023-10-13T12:16:42;99804.13;;;21.20
34807;BMP280;18310;55.586;12.286;2023-10-13T12:19:51;99793.38;;;21.22
34807;BMP280;18310;55.586;12.286;2023-10-13T12:22:56;99814.63;;;21.25
34807;BMP280;18310;55.586;12.286;2023-10-13T12:26:03;99810.81;;;21.32
34807;BMP280;18310;55.586;12.286;2023-10-13T12:29:23;99794.53;;;21.34
34807;BMP280;18310;55.586;12.286;2023-10-13T12:32:30;99791.97;;;21.39
34807;BMP280;18310;55.586;12.286;2023-10-13T12:36:01;99787.84;;;21.44
34807;BMP280;18310;55.586;12.286;2023-10-13T12:39:11;99771.44;;;21.49
34807;BMP280;18310;55.586;12.286;2023-10-13T12:42:32;99775.03;;;21.59
34807;BMP280;18310;55.586;12.286;2023-10-13T12:45:53;99768.78;;;21.67
34807;BMP280;18310;55.586;12.286;2023-10-13T12:49:16;99765.75;;;21.75
34807;BMP280;18310;55.586;12.286;2023-10-13T12:52:41;99757.16;;;21.82
34807;BMP280;18310;55.586;12.286;2023-10-13T12:56:09;99750.09;;;21.90
34807;BMP280;18310;55.586;12.286;2023-10-13T12:59:13;99750.63;;;21.97
34807;BMP280;18310;55.586;12.286;2023-10-13T13:02:16;99747.09;;;22.06
34807;BMP280;18310;55.586;12.286;2023-10-13T13:05:22;99747.91;;;22.15
34807;BMP280;18310;55.586;12.286;2023-10-13T13:08:30;99734.06;;;22.24
34807;BMP280;18310;55.586;12.286;2023-10-13T13:11:39;99726.53;;;22.34
34807;BMP280;18310;55.586;12.286;2023-10-13T13:14:42;99720.38;;;22.39
34807;BMP280;18310;55.586;12.286;2023-10-13T13:17:48;99714.69;;;22.43
34807;BMP280;18310;55.586;12.286;2023-10-13T13:20:52;99708.22;;;22.37
34807;BMP280;18310;55.586;12.286;2023-10-13T13:24:20;99704.69;;;22.45
34807;BMP280;18310;55.586;12.286;2023-10-13T13:27:25;99683.28;;;22.46
34807;BMP280;18310;55.586;12.286;2023-10-13T13:30:29;99680.03;;;22.47
34807;BMP280;18310;55.586;12.286;2023-10-13T13:33:36;99682.34;;;22.49
34807;BMP280;18310;55.586;12.286;2023-10-13T13:36:40;99678.81;;;22.48
34807;BMP280;18310;55.586;12.286;2023-10-13T13:39:47;99672.19;;;22.46
34807;BMP280;18310;55.586;12.286;2023-10-13T13:42:54;99662.78;;;22.43
34807;BMP280;18310;55.586;12.286;2023-10-13T13:45:59;99656.63;;;22.39
34807;BMP280;18310;55.586;12.286;2023-10-13T13:49:04;99644.16;;;22.35
34807;BMP280;18310;55.586;12.286;2023-10-13T13:52:09;99646.59;;;22.33
34807;BMP280;18310;55.586;12.286;2023-10-13T13:55:21;99631.69;;;22.30
34807;BMP280;18310;55.586;12.286;2023-10-13T13:58:25;99646.13;;;22.25
34807;BMP280;18310;55.586;12.286;2023-10-13T14:01:29;99625.03;;;22.18
34807;BMP280;18310;55.586;12.286;2023-10-13T14:04:33;99618.25;;;22.10
34807;BMP280;18310;55.586;12.286;2023-10-13T14:07:36;99597.47;;;22.06
34807;BMP280;18310;55.586;12.286;2023-10-13T14:10:42;99595.28;;;21.92
34807;BMP280;18310;55.586;12.286;2023-10-13T14:13:59;99602.34;;;21.93
34807;BMP280;18310;55.586;12.286;2023-10-13T14:17:06;99581.59;;;21.88
34807;BMP280;18310;55.586;12.286;2023-10-13T14:20:10;99573.28;;;21.88
34807;BMP280;18310;55.586;12.286;2023-10-13T14:23:20;99570.19;;;21.86
34807;BMP280;18310;55.586;12.286;2023-10-13T14:26:26;99552.03;;;21.85
34807;BMP280;18310;55.586;12.286;2023-10-13T14:29:29;99533.41;;;21.86
34807;BMP280;18310;55.586;12.286;2023-10-13T14:32:32;99534.50;;;21.88
34807;BMP280;18310;55.586;12.286;2023-10-13T14:35:55;99525.56;;;21.93
34807;BMP280;18310;55.586;12.286;2023-10-13T14:38:58;99512.63;;;21.99
34807;BMP280;18310;55.586;12.286;2023-10-13T14:42:01;99503.41;;;22.02
34807;BMP280;18310;55.586;12.286;2023-10-13T14:45:08;99505.88;;;22.09
34807;BMP280;18310;55.586;12.286;2023-10-13T14:48:15;99504.03;;;22.15
34807;BMP280;18310;55.586;12.286;2023-10-13T14:51:20;99495.81;;;22.21
34807;BMP280;18310;55.586;12.286;2023-10-13T14:54:23;99480.59;;;22.25
34807;BMP280;18310;55.586;12.286;2023-10-13T14:57:35;99482.75;;;22.31
34807;BMP280;18310;55.586;12.286;2023-10-13T15:00:39;99483.97;;;22.39
34807;BMP280;18310;55.586;12.286;2023-10-13T15:03:51;99478.28;;;22.42
34807;BMP280;18310;55.586;12.286;2023-10-13T15:06:58;99472.38;;;22.49
34807;BMP280;18310;55.586;12.286;2023-10-13T15:10:04;99454.19;;;22.57
34807;BMP280;18310;55.586;12.286;2023-10-13T15:13:07;99446.47;;;22.61
34807;BMP280;18310;55.586;12.286;2023-10-13T15:16:14;99442.56;;;22.68
34807;BMP280;18310;55.586;12.286;2023-10-13T15:19:19;99448.72;;;22.72
34807;BMP280;18310;55.586;12.286;2023-10-13T15:22:24;99436.22;;;22.76
34807;BMP280;18310;55.586;12.286;2023-10-13T15:25:30;99429.44;;;22.77
34807;BMP280;18310;55.586;12.286;2023-10-13T15:28:41;99430.34;;;22.83
34807;BMP280;18310;55.586;12.286;2023-10-13T15:31:51;99410.44;;;22.85
34807;BMP280;18310;55.586;12.286;2023-10-13T15:35:07;99413.81;;;22.89
34807;BMP280;18310;55.586;12.286;2023-10-13T15:38:32;99408.56;;;22.91
34807;BMP280;18310;55.586;12.286;2023-10-13T15:41:36;99399.13;;;22.98
34807;BMP280;18310;55.586;12.286;2023-10-13T15:44:40;99400.00;;;23.04
34807;BMP280;18310;55.586;12.286;2023-10-13T15:47:46;99415.41;;;23.05
34807;BMP280;18310;55.586;12.286;2023-10-13T15:50:52;99408.75;;;23.11
34807;BMP280;18310;55.586;12.286;2023-10-13T15:53:57;99412.88;;;23.16
34807;BMP280;18310;55.586;12.286;2023-10-13T15:57:01;99422.66;;;23.26
34807;BMP280;18310;55.586;12.286;2023-10-13T16:00:10;99400.13;;;23.33
34807;BMP280;18310;55.586;12.286;2023-10-13T16:03:26;99420.13;;;23.37
34807;BMP280;18310;55.586;12.286;2023-10-13T16:06:31;99412.41;;;23.41
34807;BMP280;18310;55.586;12.286;2023-10-13T16:09:37;99401.44;;;23.47
34807;BMP280;18310;55.586;12.286;2023-10-13T16:12:41;99404.94;;;23.47
34807;BMP280;18310;55.586;12.286;2023-10-13T16:15:47;99388.00;;;23.45
34807;BMP280;18310;55.586;12.286;2023-10-13T16:21:54;99396.72;;;23.53
34807;BMP280;18310;55.586;12.286;2023-10-13T16:24:59;99393.47;;;23.54
34807;BMP280;18310;55.586;12.286;2023-10-13T16:28:19;99399.72;;;23.64
34807;BMP280;18310;55.586;12.286;2023-10-13T16:31:25;99409.09;;;23.66
34807;BMP280;18310;55.586;12.286;2023-10-13T16:34:30;99410.81;;;23.64
34807;BMP280;18310;55.586;12.286;2023-10-13T16:37:33;99410.44;;;23.71
34807;BMP280;18310;55.586;12.286;2023-10-13T16:40:38;99397.13;;;23.75
34807;BMP280;18310;55.586;12.286;2023-10-13T16:43:49;99389.28;;;23.73
34807;BMP280;18310;55.586;12.286;2023-10-13T16:46:53;99384.47;;;23.74
34807;BMP280;18310;55.586;12.286;2023-10-13T16:49:59;99388.03;;;23.74
34807;BMP280;18310;55.586;12.286;2023-10-13T16:53:04;99400.69;;;23.75
34807;BMP280;18310;55.586;12.286;2023-10-13T16:56:10;99396.66;;;23.76
34807;BMP280;18310;55.586;12.286;2023-10-13T16:59:14;99400.03;;;23.80
34807;BMP280;18310;55.586;12.286;2023-10-13T17:02:17;99398.41;;;23.88
34807;BMP280;18310;55.586;12.286;2023-10-13T17:05:20;99397.53;;;23.82
34807;BMP280;18310;55.586;12.286;2023-10-13T17:08:24;99410.16;;;23.83
34807;BMP280;18310;55.586;12.286;2023-10-13T17:11:32;99393.69;;;23.80
34807;BMP280;18310;55.586;12.286;2023-10-13T17:14:37;99398.31;;;23.83
34807;BMP280;18310;55.586;12.286;2023-10-13T17:17:42;99400.78;;;23.81
34807;BMP280;18310;55.586;12.286;2023-10-13T17:20:46;99406.44;;;23.86
34807;BMP280;18310;55.586;12.286;2023-10-13T17:23:51;99409.91;;;23.81
34807;BMP280;18310;55.586;12.286;2023-10-13T17:26:56;99397.16;;;23.89
34807;BMP280;18310;55.586;12.286;2023-10-13T17:30:03;99396.56;;;23.85
34807;BMP280;18310;55.586;12.286;2023-10-13T17:33:07;99407.78;;;23.91
34807;BMP280;18310;55.586;12.286;2023-10-13T17:36:13;99409.81;;;23.76
34807;BMP280;18310;55.586;12.286;2023-10-13T17:39:17;99386.81;;;23.75
34807;BMP280;18310;55.586;12.286;2023-10-13T17:42:22;99383.72;;;23.73
34807;BMP280;18310;55.586;12.286;2023-10-13T17:45:25;99387.56;;;23.76
34807;BMP280;18310;55.586;12.286;2023-10-13T17:48:29;99390.22;;;23.70
34807;BMP280;18310;55.586;12.286;2023-10-13T17:51:33;99375.31;;;23.68